Time;durP1;ratioP1;P1;durP2;ratioP2;P2;SDS_P1;SDS_P2;PMS_P1;PMS_P2;Temp;Humidity;BMP_temperature;BMP_pressure;BME280_temperature;BME280_humidity;BME280_pressure;Samples;Min_cycle;Max_cycle;Signal;HPM_P1;HPM_P2
2023/09/20 00:02:58;;;;;;;3.78;2.05;;;;;;;17.58;87.20;100592.63;6174651;28;20607;-70
2023/09/20 00:06:20;;;;;;;1.80;1.05;;;;;;;17.63;87.05;100583.06;6176598;28;20230;-70
2023/09/20 00:09:42;;;;;;;4.82;1.50;;;;;;;17.68;86.65;100589.63;6179792;28;20233;-70
2023/09/20 00:13:03;;;;;;;1.95;1.35;;;;;;;17.72;86.41;100587.38;6178809;28;20514;-71
2023/09/20 00:16:24;;;;;;;3.10;1.90;;;;;;;17.77;86.14;100593.13;6148295;28;20233;-69
2023/09/20 00:19:45;;;;;;;3.33;1.52;;;;;;;17.76;85.82;100595.00;6175755;28;20316;-69
2023/09/20 00:23:09;;;;;;;3.70;1.63;;;;;;;17.82;85.76;100577.00;6176156;28;20230;-69
2023/09/20 00:26:29;;;;;;;2.72;1.17;;;;;;;17.82;85.61;100577.88;6171302;28;20262;-69
2023/09/20 00:29:51;;;;;;;1.60;1.00;;;;;;;17.80;85.75;100595.44;6176460;28;20237;-69
2023/09/20 00:33:12;;;;;;;2.53;1.80;;;;;;;17.85;85.61;100587.56;6175964;28;20233;-69
2023/09/20 00:36:33;;;;;;;1.05;0.95;;;;;;;17.86;85.52;100572.88;6179892;28;20233;-69
2023/09/20 00:39:56;;;;;;;3.58;1.58;;;;;;;17.88;85.30;100582.56;6176948;28;20225;-70
2023/09/20 00:43:23;;;;;;;1.83;1.30;;;;;;;17.88;85.26;100600.78;6180446;28;20221;-69
2023/09/20 00:46:46;;;;;;;4.10;1.40;;;;;;;17.89;85.28;100581.53;6176354;28;20230;-71
2023/09/20 00:50:10;;;;;;;3.78;1.27;;;;;;;17.87;85.24;100593.66;6168218;28;20226;-69
2023/09/20 00:53:33;;;;;;;2.90;1.75;;;;;;;17.89;85.15;100595.16;6165595;28;20241;-70
2023/09/20 00:56:55;;;;;;;3.67;1.60;;;;;;;17.89;84.94;100586.13;6185274;28;20245;-70
2023/09/20 01:00:21;;;;;;;2.53;1.33;;;;;;;17.89;84.94;100577.94;6158982;28;20222;-69
2023/09/20 01:03:43;;;;;;;2.70;1.40;;;;;;;17.89;85.00;100572.50;6154945;28;20238;-71
2023/09/20 01:07:04;;;;;;;2.17;1.05;;;;;;;17.89;85.43;100572.50;6174924;28;20225;-70
2023/09/20 01:10:27;;;;;;;3.00;1.13;;;;;;;17.88;84.88;100581.69;6169168;28;20254;-69
2023/09/20 01:13:49;;;;;;;2.83;1.50;;;;;;;17.87;85.07;100585.47;6167005;28;20231;-70
2023/09/20 01:17:11;;;;;;;3.13;1.35;;;;;;;17.85;85.14;100598.47;6174880;28;20368;-70
2023/09/20 01:20:34;;;;;;;1.73;1.15;;;;;;;17.86;84.99;100578.31;6158776;28;20222;-70
2023/09/20 01:23:57;;;;;;;1.58;1.10;;;;;;;17.82;85.15;100583.31;6167710;28;20234;-70
2023/09/20 01:27:18;;;;;;;1.42;1.30;;;;;;;17.86;85.02;100603.72;6185040;28;20356;-70
2023/09/20 01:30:41;;;;;;;3.45;1.67;;;;;;;17.90;84.87;100596.03;6177303;28;20749;-70
2023/09/20 01:34:02;;;;;;;3.58;1.52;;;;;;;17.93;84.67;100592.91;6178205;28;20233;-69
2023/09/20 01:37:24;;;;;;;2.58;1.05;;;;;;;17.93;84.61;100585.56;6153704;28;20304;-69
2023/09/20 01:40:46;;;;;;;1.10;1.00;;;;;;;17.92;84.64;100597.50;6162947;28;20239;-69
2023/09/20 01:44:07;;;;;;;1.73;1.23;;;;;;;17.94;84.54;100579.06;6189669;28;20698;-69
2023/09/20 01:47:29;;;;;;;2.92;1.88;;;;;;;17.94;84.47;100611.78;6176955;28;20233;-69
2023/09/20 01:50:50;;;;;;;2.80;1.45;;;;;;;17.97;84.11;100592.34;6174648;28;23156;-71
2023/09/20 01:54:11;;;;;;;3.95;1.88;;;;;;;17.98;84.01;100590.47;6159088;28;20234;-69
2023/09/20 01:57:33;;;;;;;3.15;1.77;;;;;;;17.96;84.15;100603.44;6177096;28;20233;-70
2023/09/20 02:00:54;;;;;;;2.63;1.17;;;;;;;17.97;84.15;100596.94;6182188;28;20734;-69
2023/09/20 02:04:15;;;;;;;1.83;1.48;;;;;;;17.97;84.08;100586.88;6177997;28;20256;-70
2023/09/20 02:07:37;;;;;;;5.28;1.95;;;;;;;17.96;84.04;100593.34;6166261;28;20234;-69
2023/09/20 02:10:57;;;;;;;5.20;1.35;;;;;;;17.98;83.91;100615.84;6190106;28;20229;-69
2023/09/20 02:14:21;;;;;;;2.63;1.27;;;;;;;17.98;83.89;100594.00;6162461;28;20524;-68
2023/09/20 02:17:42;;;;;;;3.33;1.77;;;;;;;17.98;83.86;100598.66;6160638;28;20234;-69
2023/09/20 02:21:03;;;;;;;4.15;2.08;;;;;;;17.96;84.01;100604.25;6175683;28;20225;-68
2023/09/20 02:24:25;;;;;;;2.53;1.52;;;;;;;17.97;83.95;100595.06;6179816;28;20237;-68
2023/09/20 02:27:45;;;;;;;3.15;1.42;;;;;;;17.95;84.15;100610.78;6177927;28;20234;-69
2023/09/20 02:31:09;;;;;;;1.35;1.20;;;;;;;17.89;84.70;100611.53;6177627;28;20238;-68
2023/09/20 02:34:30;;;;;;;2.95;1.23;;;;;;;17.87;84.82;100604.56;6164746;28;20230;-69
2023/09/20 02:37:53;;;;;;;4.03;1.80;;;;;;;17.89;84.91;100597.03;6180733;28;20230;-69
2023/09/20 02:41:15;;;;;;;2.20;1.30;;;;;;;17.85;85.28;100591.13;6164825;28;20579;-68
2023/09/20 02:44:36;;;;;;;2.65;1.45;;;;;;;17.83;85.81;100604.13;6161810;28;20223;-69
2023/09/20 02:47:58;;;;;;;3.00;1.67;;;;;;;17.85;86.14;100612.97;6176364;28;20225;-70
2023/09/20 02:51:23;;;;;;;2.60;1.30;;;;;;;17.84;86.00;100610.41;6189338;28;20229;-69
2023/09/20 02:54:45;;;;;;;3.28;1.63;;;;;;;17.81;86.40;100606.19;6176302;28;20230;-69
2023/09/20 02:58:07;;;;;;;3.90;1.38;;;;;;;17.79;86.42;100600.09;6170215;28;20234;-70
2023/09/20 03:01:28;;;;;;;2.17;1.25;;;;;;;17.76;86.83;100613.22;6161889;28;20309;-69
2023/09/20 03:04:54;;;;;;;1.52;1.17;;;;;;;17.75;87.23;100590.59;6161778;28;20670;-70
2023/09/20 03:08:15;;;;;;;4.35;1.77;;;;;;;17.77;87.17;100598.56;6179891;28;20261;-68
2023/09/20 03:11:37;;;;;;;3.03;1.65;;;;;;;17.79;87.17;100599.22;6174092;28;20488;-69
2023/09/20 03:15:02;;;;;;;2.65;1.65;;;;;;;17.80;87.09;100600.91;6174700;28;20582;-68
2023/09/20 03:18:23;;;;;;;1.63;1.48;;;;;;;17.80;87.24;100598.19;6164923;28;20459;-69
2023/09/20 03:21:51;;;;;;;1.83;1.50;;;;;;;17.82;87.12;100593.38;6186706;28;20233;-70
2023/09/20 03:25:13;;;;;;;2.60;1.70;;;;;;;17.87;86.81;100588.22;6164914;28;20226;-69
2023/09/20 03:28:35;;;;;;;3.72;2.00;;;;;;;17.86;86.79;100594.69;6160138;28;20237;-69
2023/09/20 03:31:58;;;;;;;3.92;1.58;;;;;;;17.86;86.69;100578.31;6175306;28;20230;-69
2023/09/20 03:35:21;;;;;;;2.42;1.83;;;;;;;17.88;86.64;100585.28;6172530;28;20249;-69
2023/09/20 03:38:43;;;;;;;3.25;2.25;;;;;;;17.89;86.71;100577.94;6161557;28;20237;-69
2023/09/20 03:42:07;;;;;;;1.75;1.50;;;;;;;17.90;86.62;100579.66;6156367;28;20234;-69
2023/09/20 03:45:29;;;;;;;3.42;1.75;;;;;;;17.90;86.54;100579.66;6155413;28;20230;-68
2023/09/20 03:48:50;;;;;;;4.80;1.58;;;;;;;17.90;86.54;100571.47;6152075;28;20241;-68
2023/09/20 03:52:11;;;;;;;2.05;1.92;;;;;;;17.92;86.46;100588.50;6173802;28;20650;-69
2023/09/20 03:55:34;;;;;;;1.77;1.67;;;;;;;17.94;86.27;100579.06;6157867;28;20238;-69
2023/09/20 03:58:55;;;;;;;3.05;1.70;;;;;;;17.97;86.28;100594.22;6157891;28;20233;-68
2023/09/20 04:02:16;;;;;;;2.20;1.47;;;;;;;17.98;86.13;100594.00;6172062;28;20324;-68
2023/09/20 04:05:38;;;;;;;6.55;1.70;;;;;;;17.98;86.07;100596.75;6172021;28;20559;-68
2023/09/20 04:09:01;;;;;;;2.80;1.33;;;;;;;18.00;85.98;100599.28;6161026;28;20228;-68
2023/09/20 04:12:23;;;;;;;6.80;3.67;;;;;;;17.98;85.86;100596.75;6174878;28;20790;-69
2023/09/20 04:15:45;;;;;;;2.92;1.42;;;;;;;17.97;85.79;100591.47;6183963;28;20257;-69
2023/09/20 04:19:06;;;;;;;2.13;1.83;;;;;;;17.98;85.71;100585.00;6173711;28;20272;-68
2023/09/20 04:22:30;;;;;;;9.70;1.80;;;;;;;18.00;85.59;100597.38;6174411;28;20234;-69
2023/09/20 04:25:51;;;;;;;1.95;1.63;;;;;;;18.03;85.33;100579.81;6186397;28;20225;-69
2023/09/20 04:29:14;;;;;;;1.50;1.35;;;;;;;18.02;85.15;100592.59;6165335;28;20607;-70
2023/09/20 04:32:35;;;;;;;4.75;1.83;;;;;;;18.03;85.02;100596.16;6167147;28;21565;-68
2023/09/20 04:35:58;;;;;;;4.20;2.13;;;;;;;18.03;85.10;100582.53;6184644;28;20234;-69
2023/09/20 04:39:21;;;;;;;1.73;1.40;;;;;;;18.04;84.98;100587.81;6161870;28;20256;-69
2023/09/20 04:42:42;;;;;;;7.25;1.83;;;;;;;18.08;84.42;100577.34;6169898;28;20230;-69
2023/09/20 04:46:05;;;;;;;8.15;2.72;;;;;;;18.11;84.37;100585.13;6172189;28;20257;-70
2023/09/20 04:49:26;;;;;;;6.03;2.03;;;;;;;18.12;84.29;100589.56;6170960;28;20257;-69
2023/09/20 04:52:50;;;;;;;1.92;1.60;;;;;;;18.12;84.27;100586.84;6175958;28;20229;-68
2023/09/20 04:56:11;;;;;;;3.88;2.50;;;;;;;18.12;84.17;100589.56;6177495;28;20234;-70
2023/09/20 04:59:32;;;;;;;3.72;2.60;;;;;;;18.13;84.15;100607.63;6187890;28;20550;-70
2023/09/20 05:02:56;;;;;;;2.28;2.00;;;;;;;18.15;84.42;100600.09;6175825;28;20261;-71
2023/09/20 05:06:17;;;;;;;3.63;1.83;;;;;;;18.15;83.99;100594.63;6156955;28;20585;-72
2023/09/20 05:09:38;;;;;;;3.78;1.85;;;;;;;18.15;83.75;100597.38;6162250;28;20226;-72
2023/09/20 05:13:00;;;;;;;4.03;1.70;;;;;;;18.16;83.79;100601.78;6146993;28;20233;-72
2023/09/20 05:16:22;;;;;;;2.42;1.67;;;;;;;18.16;83.59;100590.88;6164318;28;20241;-72
2023/09/20 05:19:45;;;;;;;2.55;1.52;;;;;;;18.18;83.68;100597.00;6178331;28;22509;-72
2023/09/20 05:23:06;;;;;;;2.00;1.50;;;;;;;18.18;83.28;100603.31;6180767;28;20611;-71
2023/09/20 05:26:28;;;;;;;2.63;1.85;;;;;;;18.21;83.34;100599.34;6185338;28;20607;-73
2023/09/20 05:29:50;;;;;;;4.53;2.28;;;;;;;18.16;83.23;100596.34;6194366;28;20230;-73
2023/09/20 05:33:12;;;;;;;3.65;1.92;;;;;;;18.15;83.10;100602.81;6178869;28;20336;-72
2023/09/20 05:36:34;;;;;;;1.52;1.40;;;;;;;18.14;83.21;100601.16;6178200;28;20255;-72
2023/09/20 05:39:55;;;;;;;2.85;1.95;;;;;;;18.12;83.31;100584.97;6180641;28;20229;-71
2023/09/20 05:43:16;;;;;;;4.93;2.58;;;;;;;18.14;83.23;100588.34;6179480;28;20265;-72
2023/09/20 05:46:37;;;;;;;1.80;1.70;;;;;;;18.17;82.85;100587.09;6177569;28;20230;-72
2023/09/20 05:49:58;;;;;;;2.90;1.65;;;;;;;18.19;82.98;100598.69;6181299;28;20242;-71
2023/09/20 05:53:21;;;;;;;4.30;1.75;;;;;;;18.22;82.74;100599.16;6175697;28;20234;-71
2023/09/20 05:56:42;;;;;;;6.93;2.20;;;;;;;18.23;82.84;100597.28;6174219;28;20225;-71
2023/09/20 06:00:09;;;;;;;5.97;1.83;;;;;;;18.27;82.73;100598.56;6176811;28;20229;-72
2023/09/20 06:03:32;;;;;;;6.10;2.40;;;;;;;18.30;82.29;100599.03;6173227;28;20229;-71
2023/09/20 06:06:54;;;;;;;3.08;1.67;;;;;;;18.37;82.35;100601.84;6176626;28;20242;-71
2023/09/20 06:10:18;;;;;;;4.72;1.63;;;;;;;18.44;81.97;100615.59;6173138;28;20510;-70
2023/09/20 06:13:39;;;;;;;4.03;2.00;;;;;;;18.49;81.74;100627.63;6175148;28;20225;-72
2023/09/20 06:17:00;;;;;;;2.88;1.55;;;;;;;18.54;81.18;100606.06;6183184;28;20230;-72
2023/09/20 06:20:21;;;;;;;3.53;1.75;;;;;;;18.58;81.36;100607.34;6170988;28;20222;-70
2023/09/20 06:23:42;;;;;;;3.47;1.85;;;;;;;18.56;80.95;100611.31;6183022;28;20246;-71
2023/09/20 06:27:04;;;;;;;5.10;2.10;;;;;;;18.55;81.33;100615.91;6179379;28;20328;-71
2023/09/20 06:30:25;;;;;;;1.83;1.50;;;;;;;18.47;81.34;100618.78;6178470;28;20264;-71
2023/09/20 06:33:46;;;;;;;2.58;1.58;;;;;;;18.52;81.50;100618.19;6177342;28;20237;-72
2023/09/20 06:37:09;;;;;;;1.88;1.50;;;;;;;18.49;81.67;100627.63;6178522;28;20237;-71
2023/09/20 06:40:38;;;;;;;6.35;1.60;;;;;;;18.51;81.79;100625.53;6178034;28;20230;-72
2023/09/20 06:44:01;;;;;;;3.10;1.65;;;;;;;18.50;81.97;100626.59;6175892;28;20245;-73
2023/09/20 06:47:22;;;;;;;4.03;1.80;;;;;;;18.50;82.05;100629.31;6176088;28;20587;-71
2023/09/20 06:50:45;;;;;;;2.78;2.00;;;;;;;18.53;81.85;100625.34;6174400;28;20633;-72
2023/09/20 06:54:06;;;;;;;4.10;1.63;;;;;;;18.54;81.74;100636.09;6178473;28;20233;-72
2023/09/20 06:57:29;;;;;;;3.65;2.50;;;;;;;18.51;81.96;100635.59;6176062;28;20230;-72
2023/09/20 07:00:52;;;;;;;3.58;1.95;;;;;;;18.50;82.23;100637.50;6171250;28;20328;-72
2023/09/20 07:04:13;;;;;;;2.85;2.00;;;;;;;18.44;82.34;100635.53;6177122;28;20229;-72
2023/09/20 07:07:34;;;;;;;2.95;2.38;;;;;;;18.39;82.47;100640.69;6170777;28;20246;-72
2023/09/20 07:10:55;;;;;;;3.53;1.77;;;;;;;18.57;82.15;100635.69;6173059;28;20237;-73
2023/09/20 07:14:20;;;;;;;2.97;2.08;;;;;;;18.38;82.15;100669.03;6171430;28;20230;-72
2023/09/20 07:17:43;;;;;;;5.25;1.65;;;;;;;18.47;82.23;100653.41;6176521;28;20229;-72
2023/09/20 07:21:07;;;;;;;5.03;2.63;;;;;;;18.31;82.46;100658.03;6164365;28;20246;-71
2023/09/20 07:24:28;;;;;;;2.25;1.30;;;;;;;18.45;82.52;100659.06;6161283;28;20241;-72
2023/09/20 07:27:51;;;;;;;9.65;2.17;;;;;;;18.50;81.97;100653.91;6168396;28;20684;-72
2023/09/20 07:31:18;;;;;;;4.22;2.08;;;;;;;18.61;81.81;100642.44;6165649;28;20627;-71
2023/09/20 07:34:41;;;;;;;5.38;2.60;;;;;;;18.56;81.90;100655.84;6177407;28;20546;-71
2023/09/20 07:38:04;;;;;;;7.35;2.90;;;;;;;18.69;81.79;100655.97;6169100;28;20226;-72
2023/09/20 07:41:25;;;;;;;3.55;1.75;;;;;;;18.63;81.45;100654.00;6176013;28;20583;-72
2023/09/20 07:44:46;;;;;;;2.40;1.60;;;;;;;18.82;81.20;100655.25;6181864;28;20596;-72
2023/09/20 07:48:12;;;;;;;2.13;1.80;;;;;;;18.61;81.04;100664.28;6179202;28;20225;-71
2023/09/20 07:51:36;;;;;;;3.15;1.65;;;;;;;18.57;81.20;100659.41;6176304;28;20324;-71
2023/09/20 07:54:56;;;;;;;3.15;1.75;;;;;;;18.68;81.24;100656.16;6165379;28;20287;-71
2023/09/20 07:58:19;;;;;;;2.67;1.52;;;;;;;18.74;81.10;100649.94;6177433;28;20230;-71
2023/09/20 08:01:42;;;;;;;2.05;1.73;;;;;;;18.86;80.73;100653.84;6167080;28;20234;-70
2023/09/20 08:05:03;;;;;;;2.30;1.98;;;;;;;19.02;80.12;100661.78;6173560;28;20535;-69
2023/09/20 08:08:25;;;;;;;2.92;1.70;;;;;;;19.04;79.58;100640.56;6176096;28;21008;-68
2023/09/20 08:11:46;;;;;;;4.22;1.90;;;;;;;19.09;79.56;100660.78;6180075;28;20320;-69
2023/09/20 08:15:12;;;;;;;4.80;2.17;;;;;;;19.31;79.14;100647.97;6182201;28;20516;-68
2023/09/20 08:22:15;;;;;;;2.92;1.85;;;;;;;19.22;78.89;100654.59;6171679;28;22185;-69
2023/09/20 09:02:14;;;;;;;1.55;1.33;;;;;;;20.54;74.24;100643.44;6170174;28;20246;-71
2023/09/20 09:05:35;;;;;;;3.80;1.48;;;;;;;20.53;73.15;100652.69;6180474;28;20563;-69
2023/09/20 09:08:56;;;;;;;2.85;1.83;;;;;;;20.52;73.44;100656.50;6168523;28;20246;-70
2023/09/20 09:12:17;;;;;;;5.07;1.77;;;;;;;20.42;73.51;100650.56;6183589;28;20230;-71
2023/09/20 09:15:38;;;;;;;9.70;2.15;;;;;;;20.45;73.66;100650.13;6184000;28;20810;-71
2023/09/20 09:19:00;;;;;;;2.15;1.55;;;;;;;20.27;74.38;100658.94;6181458;28;20234;-69
2023/09/20 09:22:24;;;;;;;3.03;1.25;;;;;;;20.21;74.31;100664.38;6176437;28;20230;-71
2023/09/20 09:25:45;;;;;;;2.15;1.45;;;;;;;20.40;74.11;100650.75;6192847;28;20249;-71
2023/09/20 09:29:07;;;;;;;4.53;1.60;;;;;;;20.46;74.12;100641.69;6188122;28;20238;-70
2023/09/20 09:32:35;;;;;;;6.15;2.97;;;;;;;20.62;73.66;100644.09;6185783;28;20241;-70
2023/09/20 09:35:57;;;;;;;4.93;1.80;;;;;;;20.81;73.28;100636.97;6186722;28;20319;-70
2023/09/20 09:39:18;;;;;;;6.95;1.60;;;;;;;20.79;72.57;100649.19;6179608;28;20234;-70
2023/09/20 09:42:41;;;;;;;4.50;2.80;;;;;;;20.87;72.82;100648.97;6174432;28;20677;-70
2023/09/20 09:46:06;;;;;;;6.57;2.17;;;;;;;21.04;72.33;100648.41;6179878;28;20230;-70
2023/09/20 09:49:27;;;;;;;4.65;2.90;;;;;;;21.22;72.52;100656.84;6181384;28;20248;-70
2023/09/20 09:52:50;;;;;;;2.00;1.50;;;;;;;21.16;72.35;100641.25;6182843;28;20242;-69
2023/09/20 09:56:12;;;;;;;2.45;1.73;;;;;;;20.90;73.25;100649.41;6166776;28;20229;-70
2023/09/20 09:59:32;;;;;;;5.50;2.17;;;;;;;20.92;73.59;100654.69;6178755;28;20229;-66
2023/09/20 10:02:56;;;;;;;3.55;1.70;;;;;;;20.67;73.64;100662.66;6187380;28;20237;-67
2023/09/20 10:06:22;;;;;;;3.47;1.98;;;;;;;20.75;74.28;100656.13;6150858;28;20324;-67
2023/09/20 10:09:50;;;;;;;1.90;1.67;;;;;;;20.94;74.08;100649.84;6173985;28;20235;-67
2023/09/20 10:13:14;;;;;;;2.45;1.73;;;;;;;20.86;73.92;100641.81;6184267;28;20241;-68
2023/09/20 10:16:35;;;;;;;2.53;1.50;;;;;;;20.81;73.77;100658.88;6178843;28;20237;-67
2023/09/20 10:19:57;;;;;;;4.28;1.70;;;;;;;20.83;73.64;100647.69;6178966;28;20257;-66
2023/09/20 10:23:18;;;;;;;1.45;1.35;;;;;;;21.13;72.95;100647.13;6171860;28;20230;-70
2023/09/20 10:26:41;;;;;;;2.33;2.13;;;;;;;20.85;73.47;100651.06;6175971;28;20560;-68
2023/09/20 10:30:05;;;;;;;5.05;2.03;;;;;;;21.12;71.91;100653.69;6170181;28;20242;-68
2023/09/20 10:33:41;;;;;;;3.63;1.42;;;;;;;21.55;70.94;100659.56;6180617;28;20242;-68
2023/09/20 10:37:07;;;;;;;3.70;2.05;;;;;;;23.09;66.59;100653.94;6176254;28;20246;-68
2023/09/20 10:41:00;;;;;;;5.00;2.20;;;;;;;23.54;63.83;100669.25;6162513;28;20238;-68
2023/09/20 10:44:33;;;;;;;2.63;1.77;;;;;;;22.18;66.29;100667.06;6176763;28;20243;-69
2023/09/20 10:47:55;;;;;;;8.02;2.22;;;;;;;21.52;69.33;100651.78;6167912;28;20238;-68
2023/09/20 10:51:41;;;;;;;2.30;1.60;;;;;;;21.52;70.08;100653.66;6161876;28;20265;-68
2023/09/20 10:55:37;;;;;;;2.85;1.60;;;;;;;21.39;69.62;100677.31;6152950;28;20328;-68
2023/09/20 10:58:59;;;;;;;5.10;2.17;;;;;;;22.19;68.61;100671.53;6152674;28;20252;-68
2023/09/20 11:02:21;;;;;;;5.03;2.47;;;;;;;21.89;67.64;100662.09;6152520;28;22511;-68
2023/09/20 11:05:42;;;;;;;7.70;2.47;;;;;;;23.61;63.63;100672.75;6146118;28;20230;-68
2023/09/20 11:09:11;;;;;;;4.50;2.00;;;;;;;26.30;55.74;100653.16;6168149;28;20313;-67
2023/09/20 11:12:32;;;;;;;2.72;1.83;;;;;;;29.33;48.34;100653.97;6179760;28;20618;-68
2023/09/20 11:15:59;;;;;;;2.50;1.70;;;;;;;27.77;50.51;100657.53;6177818;28;20238;-68
2023/09/20 11:19:21;;;;;;;5.72;2.20;;;;;;;27.54;50.21;100674.34;6179270;28;21268;-68
2023/09/20 11:22:43;;;;;;;2.88;1.75;;;;;;;24.59;57.56;100649.63;6178902;28;20237;-67
2023/09/20 11:26:04;;;;;;;2.47;1.80;;;;;;;23.17;62.24;100656.41;6155030;28;20233;-67
2023/09/20 11:29:26;;;;;;;4.28;2.00;;;;;;;22.66;63.99;100656.53;6177902;28;20230;-67
2023/09/20 11:32:46;;;;;;;5.32;2.40;;;;;;;23.27;63.46;100650.41;6182626;28;20266;-68
2023/09/20 11:36:19;;;;;;;3.13;1.67;;;;;;;25.15;58.82;100635.47;6171662;28;20234;-68
2023/09/20 11:39:42;;;;;;;3.10;2.08;;;;;;;25.94;54.66;100640.44;6175230;28;20253;-68
2023/09/20 11:43:03;;;;;;;4.50;2.13;;;;;;;26.49;53.75;100642.75;6176227;28;20245;-67
2023/09/20 11:46:28;;;;;;;4.15;2.22;;;;;;;27.10;51.53;100642.84;6165227;28;20238;-67
2023/09/20 11:49:50;;;;;;;4.15;1.80;;;;;;;25.38;54.65;100638.25;6179238;28;20309;-67
2023/09/20 11:53:15;;;;;;;2.40;2.10;;;;;;;26.92;53.19;100635.63;6174491;28;20234;-71
2023/09/20 11:56:36;;;;;;;2.17;1.98;;;;;;;26.28;53.12;100633.19;6175726;28;20225;-70
2023/09/20 12:00:01;;;;;;;3.00;1.58;;;;;;;25.81;54.51;100623.25;6176960;28;20229;-70
2023/09/20 12:03:22;;;;;;;5.88;2.08;;;;;;;26.27;53.12;100637.03;6165358;28;20221;-72
2023/09/20 12:06:43;;;;;;;3.38;1.70;;;;;;;26.85;50.85;100621.06;6175755;28;20226;-70
2023/09/20 12:10:06;;;;;;;3.75;1.92;;;;;;;23.90;58.29;100618.91;6149867;28;20225;-70
2023/09/20 12:13:27;;;;;;;2.80;1.85;;;;;;;25.59;56.72;100625.81;6178839;28;20238;-69
2023/09/20 12:16:49;;;;;;;3.67;2.15;;;;;;;24.83;57.22;100611.97;6178332;28;20626;-70
2023/09/20 12:20:12;;;;;;;2.33;2.13;;;;;;;25.82;54.29;100603.72;6169582;28;20238;-69
2023/09/20 12:23:35;;;;;;;4.65;2.47;;;;;;;26.50;53.86;100602.94;6174226;28;20571;-70
2023/09/20 12:26:57;;;;;;;3.47;2.00;;;;;;;28.25;48.87;100606.97;6178899;28;21144;-71
2023/09/20 12:30:18;;;;;;;2.67;1.98;;;;;;;27.63;50.23;100603.59;6180685;28;20329;-71
2023/09/20 12:33:40;;;;;;;3.47;2.10;;;;;;;27.80;49.58;100609.94;6178728;28;20256;-70
2023/09/20 12:37:00;;;;;;;4.47;2.55;;;;;;;26.71;49.97;100613.31;6177686;28;20348;-69
2023/09/20 12:40:23;;;;;;;2.67;1.55;;;;;;;27.45;49.64;100607.47;6174339;28;20336;-71
2023/09/20 12:43:45;;;;;;;5.50;2.30;;;;;;;26.06;53.07;100607.25;6175504;28;20558;-69
2023/09/20 12:47:07;;;;;;;4.45;2.60;;;;;;;24.12;57.17;100606.38;6177238;28;20229;-70
2023/09/20 12:50:32;;;;;;;5.25;2.80;;;;;;;26.22;53.46;100609.31;6166629;28;20227;-70
2023/09/20 12:53:53;;;;;;;3.38;2.13;;;;;;;28.12;49.24;100594.31;6158643;28;20246;-69
2023/09/20 12:57:15;;;;;;;3.83;1.95;;;;;;;27.48;49.79;100606.13;6162309;28;20615;-71
2023/09/20 13:00:39;;;;;;;5.45;3.20;;;;;;;24.79;55.10;100599.75;6161956;28;20258;-71
2023/09/20 13:04:00;;;;;;;4.53;2.90;;;;;;;25.08;56.60;100609.88;6161731;28;20230;-73
2023/09/20 13:07:21;;;;;;;3.97;2.08;;;;;;;27.79;49.26;100611.03;6168618;28;22425;-71
2023/09/20 13:10:43;;;;;;;3.38;1.98;;;;;;;26.36;51.03;100619.00;6164851;28;20238;-69
2023/09/20 13:14:04;;;;;;;4.20;2.97;;;;;;;26.92;51.01;100599.63;6174083;28;20234;-71
2023/09/20 13:17:27;;;;;;;2.95;2.10;;;;;;;26.99;51.04;100602.25;6176598;28;20226;-71
2023/09/20 13:20:48;;;;;;;5.03;2.60;;;;;;;26.50;51.05;100592.72;6173602;28;20226;-71
2023/09/20 13:24:11;;;;;;;3.03;1.75;;;;;;;25.37;53.81;100597.06;6171604;28;20308;-70
2023/09/20 13:27:33;;;;;;;9.70;2.47;;;;;;;23.32;59.42;100590.91;6172842;28;20313;-70
2023/09/20 13:30:53;;;;;;;3.35;1.98;;;;;;;26.68;53.76;100575.91;6178388;28;20253;-71
2023/09/20 13:34:16;;;;;;;5.72;2.08;;;;;;;27.13;50.31;100567.59;6169793;28;20242;-69
2023/09/20 13:37:40;;;;;;;3.08;1.85;;;;;;;28.19;49.07;100569.16;6171533;28;20250;-69
2023/09/20 13:41:01;;;;;;;4.28;2.28;;;;;;;26.68;50.70;100581.44;6171151;28;20603;-69
2023/09/20 13:44:22;;;;;;;3.25;1.45;;;;;;;25.90;53.03;100572.09;6170174;28;20496;-68
2023/09/20 13:47:43;;;;;;;2.00;1.80;;;;;;;25.86;52.70;100576.44;6175424;28;21268;-69
2023/09/20 13:51:06;;;;;;;1.63;1.52;;;;;;;24.63;54.72;100580.22;6162518;28;20713;-70
2023/09/20 13:54:27;;;;;;;2.13;1.80;;;;;;;25.59;54.07;100576.09;6183597;28;20257;-70
2023/09/20 13:57:50;;;;;;;3.05;1.90;;;;;;;26.74;49.95;100566.63;6180691;28;20218;-70
2023/09/20 14:01:11;;;;;;;2.45;1.60;;;;;;;27.33;49.48;100545.75;6171026;28;20313;-70
2023/09/20 14:04:32;;;;;;;3.67;2.03;;;;;;;26.13;50.49;100561.84;6182979;28;20229;-70
2023/09/20 14:07:56;;;;;;;3.70;1.95;;;;;;;28.47;46.87;100557.88;6175219;28;20238;-71
2023/09/20 14:11:17;;;;;;;3.60;1.77;;;;;;;26.12;50.00;100562.06;6166856;28;20805;-71
2023/09/20 14:14:37;;;;;;;4.68;2.28;;;;;;;24.63;52.92;100550.75;6181600;28;20238;-71
2023/09/20 14:18:00;;;;;;;3.10;2.28;;;;;;;24.39;54.67;100543.47;6180107;28;20234;-71
2023/09/20 14:21:21;;;;;;;6.70;2.40;;;;;;;25.02;53.05;100547.38;6174260;28;20238;-71
2023/09/20 14:24:43;;;;;;;4.55;2.58;;;;;;;26.36;50.18;100547.09;6160516;28;20764;-72
2023/09/20 14:28:04;;;;;;;2.80;1.95;;;;;;;26.59;49.43;100549.75;6184246;28;20313;-72
2023/09/20 14:31:27;;;;;;;3.10;1.90;;;;;;;25.50;50.41;100540.81;6174341;28;20222;-71
2023/09/20 14:34:48;;;;;;;5.53;2.42;;;;;;;25.09;52.46;100537.06;6175098;28;20388;-71
2023/09/20 14:38:09;;;;;;;2.42;1.98;;;;;;;24.76;52.70;100536.78;6180599;28;20230;-71
2023/09/20 14:41:31;;;;;;;2.33;2.13;;;;;;;24.89;53.38;100536.56;6182959;28;20226;-71
2023/09/20 14:44:53;;;;;;;3.80;2.22;;;;;;;25.35;52.23;100532.97;6186794;28;20242;-71
2023/09/20 14:48:15;;;;;;;2.58;1.77;;;;;;;24.68;54.15;100520.53;6182594;28;20816;-71
2023/09/20 14:51:36;;;;;;;1.98;1.63;;;;;;;23.64;56.04;100523.66;6177672;28;20544;-71
2023/09/20 14:54:57;;;;;;;4.65;2.42;;;;;;;24.05;56.43;100508.38;6165695;28;20253;-72
2023/09/20 14:58:19;;;;;;;3.75;2.20;;;;;;;24.73;54.79;100509.66;6171895;28;20233;-71
2023/09/20 15:01:41;;;;;;;2.10;1.73;;;;;;;23.97;55.91;100503.16;6153162;28;20233;-71
2023/09/20 15:05:03;;;;;;;2.97;2.40;;;;;;;23.55;57.59;100500.25;6157420;28;20328;-70
2023/09/20 15:08:25;;;;;;;4.32;2.35;;;;;;;23.78;57.35;100494.88;6157459;28;20642;-72
2023/09/20 15:11:46;;;;;;;4.88;2.47;;;;;;;23.57;57.67;100498.13;6151423;28;20520;-71
2023/09/20 15:15:12;;;;;;;2.75;1.83;;;;;;;23.39;58.70;100500.03;6167333;28;20694;-70
2023/09/20 15:18:36;;;;;;;4.22;2.47;;;;;;;23.71;58.52;100494.16;6177634;28;20714;-71
2023/09/20 15:21:56;;;;;;;3.45;2.30;;;;;;;24.22;56.96;100498.38;6184827;28;20612;-73
2023/09/20 15:25:18;;;;;;;2.60;1.80;;;;;;;24.70;55.56;100479.78;6170105;28;20222;-72
2023/09/20 15:28:39;;;;;;;5.53;1.73;;;;;;;24.52;56.00;100480.72;6179974;28;20230;-71
2023/09/20 15:32:02;;;;;;;1.98;1.77;;;;;;;24.47;55.14;100483.34;6180994;28;20229;-71
2023/09/20 15:35:23;;;;;;;1.67;1.58;;;;;;;24.10;55.71;100479.03;6167257;28;20237;-71
2023/09/20 15:38:46;;;;;;;3.17;1.83;;;;;;;24.07;55.59;100467.66;6177088;28;20226;-71
2023/09/20 15:42:07;;;;;;;1.92;1.65;;;;;;;23.93;56.29;100471.63;6178526;28;20348;-71
2023/09/20 15:45:29;;;;;;;7.22;2.08;;;;;;;24.18;56.01;100466.81;6169206;28;20233;-71
2023/09/20 15:48:51;;;;;;;2.35;1.77;;;;;;;23.93;56.71;100457.88;6173677;28;20259;-73
2023/09/20 15:52:14;;;;;;;3.30;2.33;;;;;;;23.92;56.90;100464.44;6173731;28;20539;-73
2023/09/20 15:55:38;;;;;;;6.65;3.05;;;;;;;23.50;58.25;100467.09;6187615;28;20233;-72
2023/09/20 15:59:01;;;;;;;3.50;1.85;;;;;;;23.56;58.12;100473.59;6184346;28;20230;-73
2023/09/20 16:02:23;;;;;;;6.40;1.90;;;;;;;23.57;58.66;100467.84;6177331;28;20230;-72
2023/09/20 16:05:48;;;;;;;1.90;1.70;;;;;;;23.28;59.24;100465.81;6178062;28;20241;-72
2023/09/20 16:09:09;;;;;;;2.53;2.20;;;;;;;22.79;59.87;100479.66;6174598;28;20536;-71
2023/09/20 16:12:30;;;;;;;3.75;1.05;;;;;;;22.68;60.70;100474.88;6165854;28;20238;-72
2023/09/20 16:15:51;;;;;;;1.73;1.42;;;;;;;22.50;61.10;100477.56;6172462;28;20229;-71
2023/09/20 16:19:13;;;;;;;3.63;1.60;;;;;;;22.55;60.98;100473.06;6175371;28;20225;-73
2023/09/20 16:22:36;;;;;;;3.53;1.33;;;;;;;22.42;61.70;100470.44;6173922;28;20313;-72